createdAt,value
2022-10-02T07:12:33.718Z,61.60
2022-10-02T07:27:47.820Z,62.30
2022-10-02T07:43:01.772Z,59.80
2022-10-02T07:58:12.079Z,58.30
2022-10-02T08:13:21.022Z,57.50
2022-10-02T08:28:31.681Z,57.30
2022-10-02T08:44:15.640Z,55.80
2022-10-02T09:00:08.821Z,55.60
2022-10-02T09:15:18.648Z,55.20
2022-10-02T09:31:03.644Z,54.70
2022-10-02T09:46:51.179Z,55.20
2022-10-02T10:02:30.820Z,55.40
2022-10-02T10:18:10.708Z,56.00
2022-10-02T10:33:42.112Z,56.00
2022-10-02T10:49:17.087Z,56.10
2022-10-02T11:04:53.808Z,56.00
2022-10-02T11:20:20.084Z,56.20
2022-10-02T11:35:48.223Z,56.10
2022-10-02T11:51:22.056Z,55.90
2022-10-02T12:06:50.032Z,55.80
2022-10-02T12:22:20.945Z,55.50
2022-10-02T12:37:33.775Z,55.30
2022-10-02T12:53:23.712Z,55.20
2022-10-02T13:08:41.494Z,55.20
2022-10-02T13:23:56.537Z,55.00
2022-10-02T13:39:23.896Z,54.90
2022-10-02T13:55:02.364Z,54.80
2022-10-02T14:10:20.311Z,55.50
2022-10-02T14:25:35.422Z,56.30
2022-10-02T14:40:51.096Z,55.80
2022-10-02T14:56:34.960Z,55.70
2022-10-02T15:11:58.281Z,55.70
2022-10-02T15:27:19.812Z,55.70
2022-10-02T15:42:49.380Z,55.50
2022-10-02T15:58:09.639Z,55.10
2022-10-02T16:13:42.354Z,55.00
2022-10-02T16:29:18.419Z,55.10
2022-10-02T16:44:45.492Z,55.40
2022-10-02T16:59:55.260Z,55.10
2022-10-02T17:15:06.358Z,55.00
2022-10-02T17:30:21.426Z,55.10
2022-10-02T17:45:35.822Z,54.60
2022-10-02T18:00:52.318Z,54.70
2022-10-02T18:16:22.299Z,54.50
2022-10-02T18:31:55.713Z,54.50
2022-10-02T18:47:09.788Z,54.40
2022-10-02T19:02:36.769Z,54.30
2022-10-02T19:17:41.499Z,54.20
2022-10-02T19:32:49.694Z,54.40
2022-10-02T19:47:59.783Z,54.00
